sensor_id;sensor_type;location;lat;lon;timestamp;temperature;humidity
3408;DHT22;1717;50.240;8.406;2024-02-23T00:00:20;9.60;99.90
3408;DHT22;1717;50.240;8.406;2024-02-23T00:02:47;9.60;99.90
3408;DHT22;1717;50.240;8.406;2024-02-23T00:05:14;9.50;99.90
3408;DHT22;1717;50.240;8.406;2024-02-23T00:07:40;9.50;99.90
3408;DHT22;1717;50.240;8.406;2024-02-23T00:10:09;9.50;99.90
3408;DHT22;1717;50.240;8.406;2024-02-23T00:12:36;9.50;99.90
3408;DHT22;1717;50.240;8.406;2024-02-23T00:15:03;9.50;99.90
3408;DHT22;1717;50.240;8.406;2024-02-23T00:17:30;9.50;99.90
3408;DHT22;1717;50.240;8.406;2024-02-23T00:19:57;9.50;99.90
3408;DHT22;1717;50.240;8.406;2024-02-23T00:22:23;9.50;99.90
3408;DHT22;1717;50.240;8.406;2024-02-23T00:24:51;9.50;99.90
3408;DHT22;1717;50.240;8.406;2024-02-23T00:27:19;9.60;99.90
3408;DHT22;1717;50.240;8.406;2024-02-23T00:29:46;9.50;99.90
3408;DHT22;1717;50.240;8.406;2024-02-23T00:32:13;9.50;99.90
3408;DHT22;1717;50.240;8.406;2024-02-23T00:34:40;9.50;99.90
3408;DHT22;1717;50.240;8.406;2024-02-23T00:37:06;9.50;99.90
3408;DHT22;1717;50.240;8.406;2024-02-23T00:39:34;9.50;99.90
3408;DHT22;1717;50.240;8.406;2024-02-23T00:42:02;9.50;99.90
3408;DHT22;1717;50.240;8.406;2024-02-23T00:44:30;9.40;99.90
3408;DHT22;1717;50.240;8.406;2024-02-23T00:46:57;9.40;99.90
3408;DHT22;1717;50.240;8.406;2024-02-23T00:49:26;9.30;99.90
3408;DHT22;1717;50.240;8.406;2024-02-23T00:51:53;9.30;99.90
3408;DHT22;1717;50.240;8.406;2024-02-23T00:54:20;9.20;99.90
3408;DHT22;1717;50.240;8.406;2024-02-23T00:56:47;9.30;99.90
3408;DHT22;1717;50.240;8.406;2024-02-23T00:59:14;9.20;99.90
3408;DHT22;1717;50.240;8.406;2024-02-23T01:01:42;9.20;99.90
3408;DHT22;1717;50.240;8.406;2024-02-23T01:04:09;9.10;99.90
3408;DHT22;1717;50.240;8.406;2024-02-23T01:06:36;9.10;99.90
3408;DHT22;1717;50.240;8.406;2024-02-23T01:09:03;9.00;99.90
3408;DHT22;1717;50.240;8.406;2024-02-23T01:11:30;9.00;99.90
3408;DHT22;1717;50.240;8.406;2024-02-23T01:13:57;8.90;99.90
3408;DHT22;1717;50.240;8.406;2024-02-23T01:16:24;8.90;99.90
3408;DHT22;1717;50.240;8.406;2024-02-23T01:18:52;8.90;99.90
3408;DHT22;1717;50.240;8.406;2024-02-23T01:21:18;8.90;99.90
3408;DHT22;1717;50.240;8.406;2024-02-23T01:23:45;8.90;99.90
3408;DHT22;1717;50.240;8.406;2024-02-23T01:26:12;9.00;99.90
3408;DHT22;1717;50.240;8.406;2024-02-23T01:28:39;8.90;99.90
3408;DHT22;1717;50.240;8.406;2024-02-23T01:31:08;8.90;99.90
3408;DHT22;1717;50.240;8.406;2024-02-23T01:33:36;8.80;99.90
3408;DHT22;1717;50.240;8.406;2024-02-23T01:36:05;8.80;99.90
3408;DHT22;1717;50.240;8.406;2024-02-23T01:38:32;8.80;99.90
3408;DHT22;1717;50.240;8.406;2024-02-23T01:40:59;8.70;99.90
3408;DHT22;1717;50.240;8.406;2024-02-23T01:43:25;8.60;99.90
3408;DHT22;1717;50.240;8.406;2024-02-23T01:45:53;8.60;99.90
3408;DHT22;1717;50.240;8.406;2024-02-23T01:48:20;8.60;99.90
3408;DHT22;1717;50.240;8.406;2024-02-23T01:50:48;8.50;99.90
3408;DHT22;1717;50.240;8.406;2024-02-23T01:53:16;8.50;99.90
3408;DHT22;1717;50.240;8.406;2024-02-23T01:55:45;8.50;99.90
3408;DHT22;1717;50.240;8.406;2024-02-23T01:58:13;8.40;99.90
3408;DHT22;1717;50.240;8.406;2024-02-23T02:00:40;8.40;99.90
3408;DHT22;1717;50.240;8.406;2024-02-23T02:03:08;8.30;99.90
3408;DHT22;1717;50.240;8.406;2024-02-23T02:05:35;8.30;99.90
3408;DHT22;1717;50.240;8.406;2024-02-23T02:08:03;8.30;99.90
3408;DHT22;1717;50.240;8.406;2024-02-23T02:10:31;8.30;99.90
3408;DHT22;1717;50.240;8.406;2024-02-23T02:13:02;8.30;99.90
3408;DHT22;1717;50.240;8.406;2024-02-23T02:15:29;8.30;99.90
3408;DHT22;1717;50.240;8.406;2024-02-23T02:17:56;8.40;99.90
3408;DHT22;1717;50.240;8.406;2024-02-23T02:20:24;8.40;99.90
3408;DHT22;1717;50.240;8.406;2024-02-23T02:22:51;8.30;99.90
3408;DHT22;1717;50.240;8.406;2024-02-23T02:25:19;8.30;99.90
3408;DHT22;1717;50.240;8.406;2024-02-23T02:27:47;8.30;99.90
3408;DHT22;1717;50.240;8.406;2024-02-23T02:30:14;8.30;99.90
3408;DHT22;1717;50.240;8.406;2024-02-23T02:32:41;8.30;99.90
3408;DHT22;1717;50.240;8.406;2024-02-23T02:35:10;8.20;99.90
3408;DHT22;1717;50.240;8.406;2024-02-23T02:37:36;8.20;99.90
3408;DHT22;1717;50.240;8.406;2024-02-23T02:40:04;8.10;99.90
3408;DHT22;1717;50.240;8.406;2024-02-23T02:42:32;8.10;99.90
3408;DHT22;1717;50.240;8.406;2024-02-23T02:45:00;8.10;99.90
3408;DHT22;1717;50.240;8.406;2024-02-23T02:47:28;8.00;99.90
3408;DHT22;1717;50.240;8.406;2024-02-23T02:49:55;8.00;99.90
3408;DHT22;1717;50.240;8.406;2024-02-23T02:52:22;8.10;99.90
3408;DHT22;1717;50.240;8.406;2024-02-23T02:54:49;8.00;99.90
3408;DHT22;1717;50.240;8.406;2024-02-23T02:57:16;8.00;99.90
3408;DHT22;1717;50.240;8.406;2024-02-23T02:59:43;8.00;99.90
3408;DHT22;1717;50.240;8.406;2024-02-23T03:02:12;8.00;99.90
3408;DHT22;1717;50.240;8.406;2024-02-23T03:04:45;8.20;99.90
3408;DHT22;1717;50.240;8.406;2024-02-23T03:07:12;8.10;99.90
3408;DHT22;1717;50.240;8.406;2024-02-23T03:09:39;8.00;99.90
3408;DHT22;1717;50.240;8.406;2024-02-23T03:12:06;8.10;99.90
3408;DHT22;1717;50.240;8.406;2024-02-23T03:14:33;8.00;99.90
3408;DHT22;1717;50.240;8.406;2024-02-23T03:17:00;8.20;99.90
3408;DHT22;1717;50.240;8.406;2024-02-23T03:19:28;8.10;99.90
3408;DHT22;1717;50.240;8.406;2024-02-23T03:21:55;8.20;99.90
3408;DHT22;1717;50.240;8.406;2024-02-23T03:24:22;8.10;99.90
3408;DHT22;1717;50.240;8.406;2024-02-23T03:26:49;8.20;99.90
3408;DHT22;1717;50.240;8.406;2024-02-23T03:29:16;8.10;99.90
3408;DHT22;1717;50.240;8.406;2024-02-23T03:31:42;8.20;99.90
3408;DHT22;1717;50.240;8.406;2024-02-23T03:34:09;8.10;99.90
3408;DHT22;1717;50.240;8.406;2024-02-23T03:36:37;8.10;99.90
3408;DHT22;1717;50.240;8.406;2024-02-23T03:39:04;8.00;99.90
3408;DHT22;1717;50.240;8.406;2024-02-23T03:41:32;8.00;99.90
3408;DHT22;1717;50.240;8.406;2024-02-23T03:43:59;7.90;99.90
3408;DHT22;1717;50.240;8.406;2024-02-23T03:46:25;7.90;99.90
3408;DHT22;1717;50.240;8.406;2024-02-23T03:48:52;7.90;99.90
3408;DHT22;1717;50.240;8.406;2024-02-23T03:51:19;7.90;99.90
3408;DHT22;1717;50.240;8.406;2024-02-23T03:53:47;8.00;99.90
3408;DHT22;1717;50.240;8.406;2024-02-23T03:56:14;7.80;99.90
3408;DHT22;1717;50.240;8.406;2024-02-23T03:58:41;7.90;99.90
3408;DHT22;1717;50.240;8.406;2024-02-23T04:01:08;7.80;99.90
3408;DHT22;1717;50.240;8.406;2024-02-23T04:03:35;7.90;99.90
3408;DHT22;1717;50.240;8.406;2024-02-23T04:06:02;7.80;99.90
3408;DHT22;1717;50.240;8.406;2024-02-23T04:08:29;7.80;99.90
3408;DHT22;1717;50.240;8.406;2024-02-23T04:10:58;7.80;99.90
3408;DHT22;1717;50.240;8.406;2024-02-23T04:13:25;7.80;99.90
3408;DHT22;1717;50.240;8.406;2024-02-23T04:15:51;7.80;99.90
3408;DHT22;1717;50.240;8.406;2024-02-23T04:18:17;7.80;99.90
3408;DHT22;1717;50.240;8.406;2024-02-23T04:20:44;7.70;99.90
3408;DHT22;1717;50.240;8.406;2024-02-23T04:23:11;7.80;99.90
3408;DHT22;1717;50.240;8.406;2024-02-23T04:25:38;7.80;99.90
3408;DHT22;1717;50.240;8.406;2024-02-23T04:28:06;7.90;99.90
3408;DHT22;1717;50.240;8.406;2024-02-23T04:30:33;7.90;99.90
3408;DHT22;1717;50.240;8.406;2024-02-23T04:32:59;7.80;99.90
3408;DHT22;1717;50.240;8.406;2024-02-23T04:35:26;7.80;99.90
3408;DHT22;1717;50.240;8.406;2024-02-23T04:37:53;7.80;99.90
3408;DHT22;1717;50.240;8.406;2024-02-23T04:40:20;7.80;99.90
3408;DHT22;1717;50.240;8.406;2024-02-23T04:42:46;7.90;99.90
3408;DHT22;1717;50.240;8.406;2024-02-23T04:45:15;7.70;99.90
3408;DHT22;1717;50.240;8.406;2024-02-23T04:47:42;7.70;99.90
3408;DHT22;1717;50.240;8.406;2024-02-23T04:50:09;7.70;99.90
3408;DHT22;1717;50.240;8.406;2024-02-23T04:52:36;7.80;99.90
3408;DHT22;1717;50.240;8.406;2024-02-23T04:55:03;7.70;99.90
3408;DHT22;1717;50.240;8.406;2024-02-23T04:57:31;7.80;99.90
3408;DHT22;1717;50.240;8.406;2024-02-23T04:59:58;7.80;99.90
3408;DHT22;1717;50.240;8.406;2024-02-23T05:02:26;7.80;99.90
3408;DHT22;1717;50.240;8.406;2024-02-23T05:04:59;7.80;99.90
3408;DHT22;1717;50.240;8.406;2024-02-23T05:07:26;7.80;99.90
3408;DHT22;1717;50.240;8.406;2024-02-23T05:09:52;7.80;99.90
3408;DHT22;1717;50.240;8.406;2024-02-23T05:12:19;7.80;99.90
3408;DHT22;1717;50.240;8.406;2024-02-23T05:14:46;7.80;99.90
3408;DHT22;1717;50.240;8.406;2024-02-23T05:17:13;7.90;99.90
3408;DHT22;1717;50.240;8.406;2024-02-23T05:19:40;7.90;99.90
3408;DHT22;1717;50.240;8.406;2024-02-23T05:22:07;8.00;99.90
3408;DHT22;1717;50.240;8.406;2024-02-23T05:24:34;8.00;99.90
3408;DHT22;1717;50.240;8.406;2024-02-23T05:27:01;8.10;99.90
3408;DHT22;1717;50.240;8.406;2024-02-23T05:29:28;8.10;99.90
3408;DHT22;1717;50.240;8.406;2024-02-23T05:31:55;8.10;99.90
3408;DHT22;1717;50.240;8.406;2024-02-23T05:34:22;8.10;99.90
3408;DHT22;1717;50.240;8.406;2024-02-23T05:36:50;8.20;99.90
3408;DHT22;1717;50.240;8.406;2024-02-23T05:39:17;8.20;99.90
3408;DHT22;1717;50.240;8.406;2024-02-23T05:41:44;8.30;99.90
3408;DHT22;1717;50.240;8.406;2024-02-23T05:44:11;8.20;99.90
3408;DHT22;1717;50.240;8.406;2024-02-23T05:46:38;8.20;99.90
3408;DHT22;1717;50.240;8.406;2024-02-23T05:49:06;8.30;99.90
3408;DHT22;1717;50.240;8.406;2024-02-23T05:51:33;8.30;99.90
3408;DHT22;1717;50.240;8.406;2024-02-23T05:54:02;8.20;99.90
3408;DHT22;1717;50.240;8.406;2024-02-23T05:56:28;8.20;99.90
3408;DHT22;1717;50.240;8.406;2024-02-23T05:58:55;8.00;99.90
3408;DHT22;1717;50.240;8.406;2024-02-23T06:01:22;8.20;99.90
3408;DHT22;1717;50.240;8.406;2024-02-23T06:03:49;8.20;99.90
3408;DHT22;1717;50.240;8.406;2024-02-23T06:06:16;8.10;99.90
3408;DHT22;1717;50.240;8.406;2024-02-23T06:08:43;8.10;99.90
3408;DHT22;1717;50.240;8.406;2024-02-23T06:11:11;8.10;99.90
3408;DHT22;1717;50.240;8.406;2024-02-23T06:13:38;8.10;99.90
3408;DHT22;1717;50.240;8.406;2024-02-23T06:16:09;8.20;99.90
3408;DHT22;1717;50.240;8.406;2024-02-23T06:18:36;8.10;99.90
3408;DHT22;1717;50.240;8.406;2024-02-23T06:21:11;8.10;99.90
3408;DHT22;1717;50.240;8.406;2024-02-23T06:23:38;8.10;99.90
3408;DHT22;1717;50.240;8.406;2024-02-23T06:26:05;8.00;99.90
3408;DHT22;1717;50.240;8.406;2024-02-23T06:28:33;8.00;99.90
3408;DHT22;1717;50.240;8.406;2024-02-23T06:31:02;8.00;99.90
3408;DHT22;1717;50.240;8.406;2024-02-23T06:33:30;8.00;99.90
3408;DHT22;1717;50.240;8.406;2024-02-23T06:35:57;8.00;99.90
3408;DHT22;1717;50.240;8.406;2024-02-23T06:38:24;8.00;99.90
3408;DHT22;1717;50.240;8.406;2024-02-23T06:40:51;8.00;99.90
3408;DHT22;1717;50.240;8.406;2024-02-23T06:43:18;7.90;99.90
3408;DHT22;1717;50.240;8.406;2024-02-23T06:45:46;8.00;99.90
3408;DHT22;1717;50.240;8.406;2024-02-23T06:48:13;8.00;99.90
3408;DHT22;1717;50.240;8.406;2024-02-23T06:50:40;7.90;99.90
3408;DHT22;1717;50.240;8.406;2024-02-23T06:53:07;7.90;99.90
3408;DHT22;1717;50.240;8.406;2024-02-23T06:55:34;7.90;99.90
3408;DHT22;1717;50.240;8.406;2024-02-23T06:58:01;7.80;99.90
3408;DHT22;1717;50.240;8.406;2024-02-23T07:00:30;7.80;99.90
3408;DHT22;1717;50.240;8.406;2024-02-23T07:02:58;7.90;99.90
3408;DHT22;1717;50.240;8.406;2024-02-23T07:05:27;7.90;99.90
3408;DHT22;1717;50.240;8.406;2024-02-23T07:07:54;7.90;99.90
3408;DHT22;1717;50.240;8.406;2024-02-23T07:10:20;7.90;99.90
3408;DHT22;1717;50.240;8.406;2024-02-23T07:12:48;7.80;99.90
3408;DHT22;1717;50.240;8.406;2024-02-23T07:15:18;7.90;99.90
3408;DHT22;1717;50.240;8.406;2024-02-23T07:17:45;7.80;99.90
3408;DHT22;1717;50.240;8.406;2024-02-23T07:20:14;7.90;99.90
3408;DHT22;1717;50.240;8.406;2024-02-23T07:22:43;7.80;99.90
3408;DHT22;1717;50.240;8.406;2024-02-23T07:25:10;7.70;99.90
3408;DHT22;1717;50.240;8.406;2024-02-23T07:27:37;7.60;99.90
3408;DHT22;1717;50.240;8.406;2024-02-23T07:30:05;7.70;99.90
3408;DHT22;1717;50.240;8.406;2024-02-23T07:32:32;7.70;99.90
3408;DHT22;1717;50.240;8.406;2024-02-23T07:34:59;7.70;99.90
3408;DHT22;1717;50.240;8.406;2024-02-23T07:37:28;7.70;99.90
3408;DHT22;1717;50.240;8.406;2024-02-23T07:39:55;7.80;99.90
3408;DHT22;1717;50.240;8.406;2024-02-23T07:42:22;7.70;99.90
3408;DHT22;1717;50.240;8.406;2024-02-23T07:44:49;7.60;99.90
3408;DHT22;1717;50.240;8.406;2024-02-23T07:47:15;7.60;99.90
3408;DHT22;1717;50.240;8.406;2024-02-23T07:49:43;7.70;99.90
3408;DHT22;1717;50.240;8.406;2024-02-23T07:52:10;7.80;99.90
3408;DHT22;1717;50.240;8.406;2024-02-23T07:54:38;7.80;99.90
3408;DHT22;1717;50.240;8.406;2024-02-23T07:57:05;7.80;99.90
3408;DHT22;1717;50.240;8.406;2024-02-23T07:59:32;7.80;99.90
3408;DHT22;1717;50.240;8.406;2024-02-23T08:01:59;7.80;99.90
3408;DHT22;1717;50.240;8.406;2024-02-23T08:04:26;7.80;99.90
3408;DHT22;1717;50.240;8.406;2024-02-23T08:06:53;7.80;99.90
3408;DHT22;1717;50.240;8.406;2024-02-23T08:09:20;7.80;99.90
3408;DHT22;1717;50.240;8.406;2024-02-23T08:11:50;7.80;99.90
3408;DHT22;1717;50.240;8.406;2024-02-23T08:14:17;7.90;99.90
3408;DHT22;1717;50.240;8.406;2024-02-23T08:16:44;7.90;99.90
3408;DHT22;1717;50.240;8.406;2024-02-23T08:19:11;7.90;99.90
3408;DHT22;1717;50.240;8.406;2024-02-23T08:21:38;8.00;99.90
3408;DHT22;1717;50.240;8.406;2024-02-23T08:24:07;8.00;99.90
3408;DHT22;1717;50.240;8.406;2024-02-23T08:26:33;7.90;99.90
3408;DHT22;1717;50.240;8.406;2024-02-23T08:29:01;7.90;99.90
3408;DHT22;1717;50.240;8.406;2024-02-23T08:31:29;7.90;99.90
3408;DHT22;1717;50.240;8.406;2024-02-23T08:33:56;7.90;99.90
3408;DHT22;1717;50.240;8.406;2024-02-23T08:36:23;7.90;99.90
3408;DHT22;1717;50.240;8.406;2024-02-23T08:38:50;7.90;99.90
3408;DHT22;1717;50.240;8.406;2024-02-23T08:41:16;7.90;99.90
3408;DHT22;1717;50.240;8.406;2024-02-23T08:43:44;8.00;99.90
3408;DHT22;1717;50.240;8.406;2024-02-23T08:46:13;7.90;99.90
3408;DHT22;1717;50.240;8.406;2024-02-23T08:48:40;7.90;99.90
3408;DHT22;1717;50.240;8.406;2024-02-23T08:51:07;7.90;99.90
3408;DHT22;1717;50.240;8.406;2024-02-23T08:53:34;7.90;99.90
3408;DHT22;1717;50.240;8.406;2024-02-23T08:56:01;8.00;99.90
3408;DHT22;1717;50.240;8.406;2024-02-23T08:58:28;8.00;99.90
3408;DHT22;1717;50.240;8.406;2024-02-23T09:00:55;8.00;99.90
3408;DHT22;1717;50.240;8.406;2024-02-23T09:03:24;8.00;99.90
3408;DHT22;1717;50.240;8.406;2024-02-23T09:05:50;8.00;99.90
3408;DHT22;1717;50.240;8.406;2024-02-23T09:08:17;8.00;99.90
3408;DHT22;1717;50.240;8.406;2024-02-23T09:10:44;8.00;99.90
3408;DHT22;1717;50.240;8.406;2024-02-23T09:13:11;8.00;99.90
3408;DHT22;1717;50.240;8.406;2024-02-23T09:15:38;8.00;99.90
3408;DHT22;1717;50.240;8.406;2024-02-23T09:18:07;8.00;99.90
3408;DHT22;1717;50.240;8.406;2024-02-23T09:20:36;8.00;99.90
3408;DHT22;1717;50.240;8.406;2024-02-23T09:23:03;8.00;99.90
3408;DHT22;1717;50.240;8.406;2024-02-23T09:25:31;8.00;99.90
3408;DHT22;1717;50.240;8.406;2024-02-23T09:27:58;8.00;99.90
3408;DHT22;1717;50.240;8.406;2024-02-23T09:30:25;8.10;99.90
3408;DHT22;1717;50.240;8.406;2024-02-23T09:32:52;8.10;99.90
3408;DHT22;1717;50.240;8.406;2024-02-23T09:35:19;8.10;99.90
3408;DHT22;1717;50.240;8.406;2024-02-23T09:37:48;8.10;99.90
3408;DHT22;1717;50.240;8.406;2024-02-23T09:40:16;8.10;99.90
3408;DHT22;1717;50.240;8.406;2024-02-23T09:42:43;8.20;99.90
3408;DHT22;1717;50.240;8.406;2024-02-23T09:45:14;8.20;99.90
3408;DHT22;1717;50.240;8.406;2024-02-23T09:47:43;8.20;99.90
3408;DHT22;1717;50.240;8.406;2024-02-23T09:50:12;8.20;99.90
3408;DHT22;1717;50.240;8.406;2024-02-23T09:52:40;8.20;99.90
3408;DHT22;1717;50.240;8.406;2024-02-23T09:55:09;8.20;99.90
3408;DHT22;1717;50.240;8.406;2024-02-23T09:57:36;8.20;99.90
3408;DHT22;1717;50.240;8.406;2024-02-23T10:00:04;8.20;99.90
3408;DHT22;1717;50.240;8.406;2024-02-23T10:02:32;8.20;99.90
3408;DHT22;1717;50.240;8.406;2024-02-23T10:05:00;8.20;99.90
3408;DHT22;1717;50.240;8.406;2024-02-23T10:07:28;8.30;99.90
3408;DHT22;1717;50.240;8.406;2024-02-23T10:09:55;8.30;99.90
3408;DHT22;1717;50.240;8.406;2024-02-23T10:12:24;8.40;99.90
3408;DHT22;1717;50.240;8.406;2024-02-23T10:14:51;8.40;99.90
3408;DHT22;1717;50.240;8.406;2024-02-23T10:17:20;8.50;99.90
3408;DHT22;1717;50.240;8.406;2024-02-23T10:19:47;8.50;99.90
3408;DHT22;1717;50.240;8.406;2024-02-23T10:22:14;8.50;99.90
3408;DHT22;1717;50.240;8.406;2024-02-23T10:24:42;8.50;99.90
3408;DHT22;1717;50.240;8.406;2024-02-23T10:27:09;8.50;99.90
3408;DHT22;1717;50.240;8.406;2024-02-23T10:29:38;8.50;99.90
3408;DHT22;1717;50.240;8.406;2024-02-23T10:32:06;8.60;99.90
3408;DHT22;1717;50.240;8.406;2024-02-23T10:34:37;8.60;99.90
3408;DHT22;1717;50.240;8.406;2024-02-23T10:37:06;8.60;99.90
3408;DHT22;1717;50.240;8.406;2024-02-23T10:39:36;8.60;99.90
3408;DHT22;1717;50.240;8.406;2024-02-23T10:42:04;8.70;99.90
3408;DHT22;1717;50.240;8.406;2024-02-23T10:44:33;8.80;99.90
3408;DHT22;1717;50.240;8.406;2024-02-23T10:47:04;8.70;99.90
3408;DHT22;1717;50.240;8.406;2024-02-23T10:49:31;8.80;99.90
3408;DHT22;1717;50.240;8.406;2024-02-23T10:52:00;8.80;99.90
3408;DHT22;1717;50.240;8.406;2024-02-23T10:54:29;8.80;99.90
3408;DHT22;1717;50.240;8.406;2024-02-23T10:56:58;8.90;99.90
3408;DHT22;1717;50.240;8.406;2024-02-23T10:59:26;8.90;99.90
3408;DHT22;1717;50.240;8.406;2024-02-23T11:01:55;9.00;99.90
3408;DHT22;1717;50.240;8.406;2024-02-23T11:04:26;9.10;99.90
3408;DHT22;1717;50.240;8.406;2024-02-23T11:06:55;9.10;99.90
3408;DHT22;1717;50.240;8.406;2024-02-23T11:09:24;9.10;99.90
3408;DHT22;1717;50.240;8.406;2024-02-23T11:11:55;9.20;99.90
3408;DHT22;1717;50.240;8.406;2024-02-23T11:14:32;9.10;99.90
3408;DHT22;1717;50.240;8.406;2024-02-23T11:16:59;9.10;99.90
3408;DHT22;1717;50.240;8.406;2024-02-23T11:19:35;9.20;99.90
3408;DHT22;1717;50.240;8.406;2024-02-23T11:22:03;9.20;99.90
3408;DHT22;1717;50.240;8.406;2024-02-23T11:24:31;9.10;99.90
3408;DHT22;1717;50.240;8.406;2024-02-23T11:26:58;9.10;99.90
3408;DHT22;1717;50.240;8.406;2024-02-23T11:29:26;9.10;99.90
3408;DHT22;1717;50.240;8.406;2024-02-23T11:31:55;9.10;99.90
3408;DHT22;1717;50.240;8.406;2024-02-23T11:34:27;9.10;99.90
3408;DHT22;1717;50.240;8.406;2024-02-23T11:36:56;9.10;99.90
3408;DHT22;1717;50.240;8.406;2024-02-23T11:39:26;9.10;99.90
3408;DHT22;1717;50.240;8.406;2024-02-23T11:41:54;9.10;99.90
3408;DHT22;1717;50.240;8.406;2024-02-23T11:44:22;9.00;99.90
3408;DHT22;1717;50.240;8.406;2024-02-23T11:46:49;9.00;99.90
3408;DHT22;1717;50.240;8.406;2024-02-23T11:49:15;9.00;99.90
3408;DHT22;1717;50.240;8.406;2024-02-23T11:51:43;8.90;99.90
3408;DHT22;1717;50.240;8.406;2024-02-23T11:54:12;8.90;99.90
3408;DHT22;1717;50.240;8.406;2024-02-23T11:56:40;8.90;99.90
3408;DHT22;1717;50.240;8.406;2024-02-23T11:59:08;8.90;99.90
3408;DHT22;1717;50.240;8.406;2024-02-23T12:01:35;8.90;99.90
3408;DHT22;1717;50.240;8.406;2024-02-23T12:04:03;8.90;99.90
3408;DHT22;1717;50.240;8.406;2024-02-23T12:06:30;8.90;99.90
3408;DHT22;1717;50.240;8.406;2024-02-23T12:08:59;9.00;99.90
3408;DHT22;1717;50.240;8.406;2024-02-23T12:11:27;9.00;99.90
3408;DHT22;1717;50.240;8.406;2024-02-23T12:13:55;9.00;99.90
3408;DHT22;1717;50.240;8.406;2024-02-23T12:16:22;9.00;99.90
3408;DHT22;1717;50.240;8.406;2024-02-23T12:18:53;9.10;99.90
3408;DHT22;1717;50.240;8.406;2024-02-23T12:21:22;9.10;99.90
3408;DHT22;1717;50.240;8.406;2024-02-23T12:23:50;9.20;99.90
3408;DHT22;1717;50.240;8.406;2024-02-23T12:26:18;9.20;99.90
3408;DHT22;1717;50.240;8.406;2024-02-23T12:28:46;9.20;99.90
3408;DHT22;1717;50.240;8.406;2024-02-23T12:31:13;9.30;99.90
3408;DHT22;1717;50.240;8.406;2024-02-23T12:33:41;9.30;99.90
3408;DHT22;1717;50.240;8.406;2024-02-23T12:36:13;9.40;99.90
3408;DHT22;1717;50.240;8.406;2024-02-23T12:38:40;9.40;99.90
3408;DHT22;1717;50.240;8.406;2024-02-23T12:41:07;9.50;99.90
3408;DHT22;1717;50.240;8.406;2024-02-23T12:43:34;9.50;99.90
3408;DHT22;1717;50.240;8.406;2024-02-23T12:46:03;9.50;99.90
3408;DHT22;1717;50.240;8.406;2024-02-23T12:48:30;9.50;99.90
3408;DHT22;1717;50.240;8.406;2024-02-23T12:50:57;9.50;99.90
3408;DHT22;1717;50.240;8.406;2024-02-23T12:53:32;9.50;99.90
3408;DHT22;1717;50.240;8.406;2024-02-23T12:56:00;9.50;99.90
3408;DHT22;1717;50.240;8.406;2024-02-23T12:58:28;9.60;99.90
3408;DHT22;1717;50.240;8.406;2024-02-23T13:00:56;9.60;99.90
3408;DHT22;1717;50.240;8.406;2024-02-23T13:03:25;9.60;99.90
3408;DHT22;1717;50.240;8.406;2024-02-23T13:05:53;9.70;99.90
3408;DHT22;1717;50.240;8.406;2024-02-23T13:08:21;9.70;99.90
3408;DHT22;1717;50.240;8.406;2024-02-23T13:10:48;9.60;99.90
3408;DHT22;1717;50.240;8.406;2024-02-23T13:13:15;9.70;99.90
3408;DHT22;1717;50.240;8.406;2024-02-23T13:15:42;9.70;99.90
3408;DHT22;1717;50.240;8.406;2024-02-23T13:18:09;9.80;99.90
3408;DHT22;1717;50.240;8.406;2024-02-23T13:20:39;9.80;99.90
3408;DHT22;1717;50.240;8.406;2024-02-23T13:23:07;9.80;99.90
3408;DHT22;1717;50.240;8.406;2024-02-23T13:25:35;9.90;99.90
3408;DHT22;1717;50.240;8.406;2024-02-23T13:28:02;9.90;99.90
3408;DHT22;1717;50.240;8.406;2024-02-23T13:30:30;9.90;99.90
3408;DHT22;1717;50.240;8.406;2024-02-23T13:32:57;10.00;99.90
3408;DHT22;1717;50.240;8.406;2024-02-23T13:35:24;10.00;99.90
3408;DHT22;1717;50.240;8.406;2024-02-23T13:37:52;10.00;99.90
3408;DHT22;1717;50.240;8.406;2024-02-23T13:40:20;10.00;99.90
3408;DHT22;1717;50.240;8.406;2024-02-23T13:42:47;10.00;99.90
3408;DHT22;1717;50.240;8.406;2024-02-23T13:45:16;10.00;99.90
3408;DHT22;1717;50.240;8.406;2024-02-23T13:47:43;10.10;99.90
3408;DHT22;1717;50.240;8.406;2024-02-23T13:50:11;10.10;99.90
3408;DHT22;1717;50.240;8.406;2024-02-23T13:52:39;10.10;99.90
3408;DHT22;1717;50.240;8.406;2024-02-23T13:55:08;10.10;99.90
3408;DHT22;1717;50.240;8.406;2024-02-23T13:57:36;10.20;99.90
3408;DHT22;1717;50.240;8.406;2024-02-23T14:00:04;10.10;99.90
3408;DHT22;1717;50.240;8.406;2024-02-23T14:02:33;10.20;99.90
3408;DHT22;1717;50.240;8.406;2024-02-23T14:05:02;10.20;99.90
3408;DHT22;1717;50.240;8.406;2024-02-23T14:07:30;10.30;99.90
3408;DHT22;1717;50.240;8.406;2024-02-23T14:09:57;10.30;99.90
3408;DHT22;1717;50.240;8.406;2024-02-23T14:12:26;10.30;99.90
3408;DHT22;1717;50.240;8.406;2024-02-23T14:14:53;10.40;99.90
3408;DHT22;1717;50.240;8.406;2024-02-23T14:17:20;10.40;99.90
3408;DHT22;1717;50.240;8.406;2024-02-23T14:19:47;10.50;99.90
3408;DHT22;1717;50.240;8.406;2024-02-23T14:22:16;10.50;99.90
3408;DHT22;1717;50.240;8.406;2024-02-23T14:24:43;10.60;99.90
3408;DHT22;1717;50.240;8.406;2024-02-23T14:27:10;10.60;99.90
3408;DHT22;1717;50.240;8.406;2024-02-23T14:29:38;10.70;99.90
3408;DHT22;1717;50.240;8.406;2024-02-23T14:32:05;10.70;99.90
3408;DHT22;1717;50.240;8.406;2024-02-23T14:34:32;10.80;99.90
3408;DHT22;1717;50.240;8.406;2024-02-23T14:37:00;10.70;99.90
3408;DHT22;1717;50.240;8.406;2024-02-23T14:39:27;10.80;99.90
3408;DHT22;1717;50.240;8.406;2024-02-23T14:41:54;10.80;99.90
3408;DHT22;1717;50.240;8.406;2024-02-23T14:44:21;10.80;99.90
3408;DHT22;1717;50.240;8.406;2024-02-23T14:46:50;10.80;99.90
3408;DHT22;1717;50.240;8.406;2024-02-23T14:49:17;10.90;99.90
3408;DHT22;1717;50.240;8.406;2024-02-23T14:51:44;10.90;99.90
3408;DHT22;1717;50.240;8.406;2024-02-23T14:54:14;10.90;99.90
3408;DHT22;1717;50.240;8.406;2024-02-23T14:56:41;11.00;99.90
3408;DHT22;1717;50.240;8.406;2024-02-23T14:59:08;10.90;99.90
3408;DHT22;1717;50.240;8.406;2024-02-23T15:01:36;11.00;99.90
3408;DHT22;1717;50.240;8.406;2024-02-23T15:04:05;11.00;99.90
3408;DHT22;1717;50.240;8.406;2024-02-23T15:06:32;11.00;99.90
3408;DHT22;1717;50.240;8.406;2024-02-23T15:08:59;11.10;99.90
3408;DHT22;1717;50.240;8.406;2024-02-23T15:11:26;11.00;99.90
3408;DHT22;1717;50.240;8.406;2024-02-23T15:13:54;11.00;99.90
3408;DHT22;1717;50.240;8.406;2024-02-23T15:16:23;11.00;99.90
3408;DHT22;1717;50.240;8.406;2024-02-23T15:18:50;11.00;99.90
3408;DHT22;1717;50.240;8.406;2024-02-23T15:21:19;10.90;99.90
3408;DHT22;1717;50.240;8.406;2024-02-23T15:23:46;10.90;99.90
3408;DHT22;1717;50.240;8.406;2024-02-23T15:26:13;11.00;99.90
3408;DHT22;1717;50.240;8.406;2024-02-23T15:28:40;11.00;99.90
3408;DHT22;1717;50.240;8.406;2024-02-23T15:31:07;11.00;99.90
3408;DHT22;1717;50.240;8.406;2024-02-23T15:33:35;11.00;99.90
3408;DHT22;1717;50.240;8.406;2024-02-23T15:36:05;10.90;99.90
3408;DHT22;1717;50.240;8.406;2024-02-23T15:38:35;11.00;99.90
3408;DHT22;1717;50.240;8.406;2024-02-23T15:41:02;10.90;99.90
3408;DHT22;1717;50.240;8.406;2024-02-23T15:43:29;11.00;99.90
3408;DHT22;1717;50.240;8.406;2024-02-23T15:45:56;11.00;99.90
3408;DHT22;1717;50.240;8.406;2024-02-23T15:48:24;11.10;99.90
3408;DHT22;1717;50.240;8.406;2024-02-23T15:50:51;11.10;99.90
3408;DHT22;1717;50.240;8.406;2024-02-23T15:53:18;11.10;99.90
3408;DHT22;1717;50.240;8.406;2024-02-23T15:55:47;11.10;99.90
3408;DHT22;1717;50.240;8.406;2024-02-23T15:58:14;11.20;99.90
3408;DHT22;1717;50.240;8.406;2024-02-23T16:00:45;11.30;99.90
3408;DHT22;1717;50.240;8.406;2024-02-23T16:03:12;11.20;99.90
3408;DHT22;1717;50.240;8.406;2024-02-23T16:05:38;11.20;99.90
3408;DHT22;1717;50.240;8.406;2024-02-23T16:08:06;11.20;99.90
3408;DHT22;1717;50.240;8.406;2024-02-23T16:10:33;11.20;99.90
3408;DHT22;1717;50.240;8.406;2024-02-23T16:13:02;11.20;99.90
3408;DHT22;1717;50.240;8.406;2024-02-23T16:15:29;11.20;99.90